sensor_id;sensor_type;location;lat;lon;timestamp;P1;durP1;ratioP1;P2;durP2;ratioP2
76606;SDS011;65498;50.916;4.698;2023-04-25T00:01:02;12.18;;;4.17;;
76606;SDS011;65498;50.916;4.698;2023-04-25T00:03:34;10.10;;;3.90;;
76606;SDS011;65498;50.916;4.698;2023-04-25T00:08:50;12.37;;;4.17;;
76606;SDS011;65498;50.916;4.698;2023-04-25T00:11:19;9.30;;;3.33;;
76606;SDS011;65498;50.916;4.698;2023-04-25T00:13:46;10.90;;;3.92;;
76606;SDS011;65498;50.916;4.698;2023-04-25T00:16:15;9.10;;;3.55;;
76606;SDS011;65498;50.916;4.698;2023-04-25T00:18:43;13.88;;;4.35;;
76606;SDS011;65498;50.916;4.698;2023-04-25T00:21:12;11.10;;;4.78;;
76606;SDS011;65498;50.916;4.698;2023-04-25T00:23:40;10.40;;;3.98;;
76606;SDS011;65498;50.916;4.698;2023-04-25T00:26:08;11.00;;;4.08;;
76606;SDS011;65498;50.916;4.698;2023-04-25T00:28:35;8.93;;;3.22;;
76606;SDS011;65498;50.916;4.698;2023-04-25T00:31:03;9.85;;;3.40;;
76606;SDS011;65498;50.916;4.698;2023-04-25T00:33:31;9.23;;;3.42;;
76606;SDS011;65498;50.916;4.698;2023-04-25T00:35:58;13.13;;;3.55;;
76606;SDS011;65498;50.916;4.698;2023-04-25T00:38:26;10.32;;;3.50;;
76606;SDS011;65498;50.916;4.698;2023-04-25T00:40:53;10.43;;;3.00;;
76606;SDS011;65498;50.916;4.698;2023-04-25T00:43:21;10.70;;;3.58;;
76606;SDS011;65498;50.916;4.698;2023-04-25T00:45:49;11.12;;;3.30;;
76606;SDS011;65498;50.916;4.698;2023-04-25T00:48:21;8.73;;;2.98;;
76606;SDS011;65498;50.916;4.698;2023-04-25T00:51:07;7.80;;;2.95;;
76606;SDS011;65498;50.916;4.698;2023-04-25T00:53:36;9.18;;;3.27;;
76606;SDS011;65498;50.916;4.698;2023-04-25T00:56:03;9.90;;;3.50;;
76606;SDS011;65498;50.916;4.698;2023-04-25T00:58:31;12.37;;;4.20;;
76606;SDS011;65498;50.916;4.698;2023-04-25T01:00:59;7.67;;;3.00;;
76606;SDS011;65498;50.916;4.698;2023-04-25T01:03:29;10.68;;;3.95;;
76606;SDS011;65498;50.916;4.698;2023-04-25T01:05:58;9.30;;;3.27;;
76606;SDS011;65498;50.916;4.698;2023-04-25T01:08:26;11.08;;;3.60;;
76606;SDS011;65498;50.916;4.698;2023-04-25T01:10:54;9.65;;;3.50;;
76606;SDS011;65498;50.916;4.698;2023-04-25T01:13:21;7.87;;;2.92;;
76606;SDS011;65498;50.916;4.698;2023-04-25T01:15:49;8.53;;;3.37;;
76606;SDS011;65498;50.916;4.698;2023-04-25T01:18:17;8.20;;;3.15;;
76606;SDS011;65498;50.916;4.698;2023-04-25T01:20:48;7.58;;;3.05;;
76606;SDS011;65498;50.916;4.698;2023-04-25T01:23:18;9.05;;;3.10;;
76606;SDS011;65498;50.916;4.698;2023-04-25T01:25:47;9.88;;;3.35;;
76606;SDS011;65498;50.916;4.698;2023-04-25T01:28:15;7.65;;;4.08;;
76606;SDS011;65498;50.916;4.698;2023-04-25T01:30:44;8.78;;;3.30;;
76606;SDS011;65498;50.916;4.698;2023-04-25T01:33:13;8.33;;;3.40;;
76606;SDS011;65498;50.916;4.698;2023-04-25T01:35:42;9.20;;;2.92;;
76606;SDS011;65498;50.916;4.698;2023-04-25T01:38:09;8.35;;;3.33;;
76606;SDS011;65498;50.916;4.698;2023-04-25T01:40:38;10.40;;;3.30;;
76606;SDS011;65498;50.916;4.698;2023-04-25T01:43:07;8.73;;;3.30;;
76606;SDS011;65498;50.916;4.698;2023-04-25T01:45:37;9.03;;;3.00;;
76606;SDS011;65498;50.916;4.698;2023-04-25T01:48:08;7.33;;;2.87;;
76606;SDS011;65498;50.916;4.698;2023-04-25T01:50:38;10.43;;;3.98;;
76606;SDS011;65498;50.916;4.698;2023-04-25T01:53:06;9.43;;;3.02;;
76606;SDS011;65498;50.916;4.698;2023-04-25T01:55:35;7.40;;;3.08;;
76606;SDS011;65498;50.916;4.698;2023-04-25T01:58:02;7.80;;;2.83;;
76606;SDS011;65498;50.916;4.698;2023-04-25T02:00:32;8.13;;;3.20;;
76606;SDS011;65498;50.916;4.698;2023-04-25T02:03:00;7.83;;;3.02;;
76606;SDS011;65498;50.916;4.698;2023-04-25T02:05:28;7.70;;;3.15;;
76606;SDS011;65498;50.916;4.698;2023-04-25T02:07:57;8.13;;;3.15;;
76606;SDS011;65498;50.916;4.698;2023-04-25T02:10:24;7.50;;;2.80;;
76606;SDS011;65498;50.916;4.698;2023-04-25T02:12:52;7.85;;;3.10;;
76606;SDS011;65498;50.916;4.698;2023-04-25T02:15:19;7.40;;;2.80;;
76606;SDS011;65498;50.916;4.698;2023-04-25T02:17:47;8.40;;;2.52;;
76606;SDS011;65498;50.916;4.698;2023-04-25T02:20:14;7.22;;;2.77;;
76606;SDS011;65498;50.916;4.698;2023-04-25T02:22:43;8.25;;;2.85;;
76606;SDS011;65498;50.916;4.698;2023-04-25T02:25:10;7.85;;;2.90;;
76606;SDS011;65498;50.916;4.698;2023-04-25T02:27:38;6.42;;;2.83;;
76606;SDS011;65498;50.916;4.698;2023-04-25T02:30:06;7.17;;;2.58;;
76606;SDS011;65498;50.916;4.698;2023-04-25T02:32:34;7.40;;;2.62;;
76606;SDS011;65498;50.916;4.698;2023-04-25T02:35:02;8.90;;;2.77;;
76606;SDS011;65498;50.916;4.698;2023-04-25T02:37:31;7.22;;;2.90;;
76606;SDS011;65498;50.916;4.698;2023-04-25T02:39:59;7.77;;;3.13;;
76606;SDS011;65498;50.916;4.698;2023-04-25T02:42:28;6.87;;;2.58;;
76606;SDS011;65498;50.916;4.698;2023-04-25T02:44:56;7.47;;;2.85;;
76606;SDS011;65498;50.916;4.698;2023-04-25T02:47:24;6.47;;;2.30;;
76606;SDS011;65498;50.916;4.698;2023-04-25T02:49:51;7.33;;;2.77;;
76606;SDS011;65498;50.916;4.698;2023-04-25T02:52:19;7.55;;;2.47;;
76606;SDS011;65498;50.916;4.698;2023-04-25T02:54:47;6.67;;;2.55;;
76606;SDS011;65498;50.916;4.698;2023-04-25T02:57:14;7.92;;;2.55;;
76606;SDS011;65498;50.916;4.698;2023-04-25T02:59:42;6.92;;;2.60;;
76606;SDS011;65498;50.916;4.698;2023-04-25T03:02:10;7.47;;;2.77;;
76606;SDS011;65498;50.916;4.698;2023-04-25T03:04:37;7.80;;;2.90;;
76606;SDS011;65498;50.916;4.698;2023-04-25T03:07:05;6.53;;;2.65;;
76606;SDS011;65498;50.916;4.698;2023-04-25T03:09:33;6.72;;;2.37;;
76606;SDS011;65498;50.916;4.698;2023-04-25T03:12:00;6.97;;;2.65;;
76606;SDS011;65498;50.916;4.698;2023-04-25T03:14:28;6.50;;;2.45;;
76606;SDS011;65498;50.916;4.698;2023-04-25T03:16:56;8.48;;;2.98;;
76606;SDS011;65498;50.916;4.698;2023-04-25T03:19:23;6.83;;;2.60;;
76606;SDS011;65498;50.916;4.698;2023-04-25T03:21:51;7.53;;;2.47;;
76606;SDS011;65498;50.916;4.698;2023-04-25T03:24:19;7.37;;;2.60;;
76606;SDS011;65498;50.916;4.698;2023-04-25T03:26:46;6.20;;;2.50;;
76606;SDS011;65498;50.916;4.698;2023-04-25T03:29:14;6.47;;;2.50;;
76606;SDS011;65498;50.916;4.698;2023-04-25T03:31:41;6.97;;;2.60;;
76606;SDS011;65498;50.916;4.698;2023-04-25T03:34:09;6.47;;;2.37;;
76606;SDS011;65498;50.916;4.698;2023-04-25T03:36:36;5.90;;;2.40;;
76606;SDS011;65498;50.916;4.698;2023-04-25T03:39:04;7.60;;;2.55;;
76606;SDS011;65498;50.916;4.698;2023-04-25T03:41:31;10.55;;;2.95;;
76606;SDS011;65498;50.916;4.698;2023-04-25T03:43:59;5.78;;;2.40;;
76606;SDS011;65498;50.916;4.698;2023-04-25T03:46:26;4.95;;;1.90;;
76606;SDS011;65498;50.916;4.698;2023-04-25T03:48:54;7.60;;;2.58;;
76606;SDS011;65498;50.916;4.698;2023-04-25T03:51:21;7.65;;;2.55;;
76606;SDS011;65498;50.916;4.698;2023-04-25T03:53:49;7.17;;;2.30;;
76606;SDS011;65498;50.916;4.698;2023-04-25T03:56:16;7.75;;;2.65;;
76606;SDS011;65498;50.916;4.698;2023-04-25T03:58:44;6.03;;;2.42;;
76606;SDS011;65498;50.916;4.698;2023-04-25T04:01:12;6.65;;;2.55;;
76606;SDS011;65498;50.916;4.698;2023-04-25T04:03:39;7.00;;;2.42;;
76606;SDS011;65498;50.916;4.698;2023-04-25T04:06:07;6.65;;;2.35;;
76606;SDS011;65498;50.916;4.698;2023-04-25T04:08:35;6.22;;;2.40;;
76606;SDS011;65498;50.916;4.698;2023-04-25T04:11:02;6.03;;;2.22;;
76606;SDS011;65498;50.916;4.698;2023-04-25T04:13:30;8.60;;;4.12;;
76606;SDS011;65498;50.916;4.698;2023-04-25T04:15:58;8.48;;;2.35;;
76606;SDS011;65498;50.916;4.698;2023-04-25T04:18:25;6.10;;;2.45;;
76606;SDS011;65498;50.916;4.698;2023-04-25T04:20:53;7.35;;;2.55;;
76606;SDS011;65498;50.916;4.698;2023-04-25T04:23:20;6.45;;;2.30;;
76606;SDS011;65498;50.916;4.698;2023-04-25T04:25:48;6.08;;;2.27;;
76606;SDS011;65498;50.916;4.698;2023-04-25T04:28:16;6.08;;;2.20;;
76606;SDS011;65498;50.916;4.698;2023-04-25T04:30:43;6.33;;;2.25;;
76606;SDS011;65498;50.916;4.698;2023-04-25T04:33:11;6.12;;;2.42;;
76606;SDS011;65498;50.916;4.698;2023-04-25T04:35:41;8.28;;;2.35;;
76606;SDS011;65498;50.916;4.698;2023-04-25T04:38:08;6.37;;;2.42;;
76606;SDS011;65498;50.916;4.698;2023-04-25T04:40:37;5.70;;;2.08;;
76606;SDS011;65498;50.916;4.698;2023-04-25T04:43:05;7.28;;;2.20;;
76606;SDS011;65498;50.916;4.698;2023-04-25T04:45:34;6.28;;;2.12;;
76606;SDS011;65498;50.916;4.698;2023-04-25T04:48:02;7.92;;;2.45;;
76606;SDS011;65498;50.916;4.698;2023-04-25T04:50:31;6.93;;;2.40;;
76606;SDS011;65498;50.916;4.698;2023-04-25T04:52:59;6.17;;;2.08;;
76606;SDS011;65498;50.916;4.698;2023-04-25T04:55:27;6.47;;;2.20;;
76606;SDS011;65498;50.916;4.698;2023-04-25T04:57:54;6.87;;;2.30;;
76606;SDS011;65498;50.916;4.698;2023-04-25T05:00:22;7.22;;;2.22;;
76606;SDS011;65498;50.916;4.698;2023-04-25T05:02:49;6.25;;;2.20;;
76606;SDS011;65498;50.916;4.698;2023-04-25T05:05:17;6.90;;;2.35;;
76606;SDS011;65498;50.916;4.698;2023-04-25T05:07:44;9.13;;;2.30;;
76606;SDS011;65498;50.916;4.698;2023-04-25T05:10:12;5.92;;;2.10;;
76606;SDS011;65498;50.916;4.698;2023-04-25T05:12:40;7.45;;;2.52;;
76606;SDS011;65498;50.916;4.698;2023-04-25T05:15:07;6.08;;;2.37;;
76606;SDS011;65498;50.916;4.698;2023-04-25T05:17:35;6.58;;;2.33;;
76606;SDS011;65498;50.916;4.698;2023-04-25T05:20:05;7.05;;;2.40;;
76606;SDS011;65498;50.916;4.698;2023-04-25T05:22:35;7.58;;;2.35;;
76606;SDS011;65498;50.916;4.698;2023-04-25T05:25:03;7.17;;;2.12;;
76606;SDS011;65498;50.916;4.698;2023-04-25T05:27:31;6.90;;;2.30;;
76606;SDS011;65498;50.916;4.698;2023-04-25T05:29:58;6.53;;;2.22;;
76606;SDS011;65498;50.916;4.698;2023-04-25T05:32:26;6.70;;;2.22;;
76606;SDS011;65498;50.916;4.698;2023-04-25T05:34:54;6.53;;;2.00;;
76606;SDS011;65498;50.916;4.698;2023-04-25T05:37:21;6.72;;;2.30;;
76606;SDS011;65498;50.916;4.698;2023-04-25T05:39:49;6.20;;;2.40;;
76606;SDS011;65498;50.916;4.698;2023-04-25T05:42:16;6.03;;;2.45;;
76606;SDS011;65498;50.916;4.698;2023-04-25T05:44:44;6.62;;;2.00;;
76606;SDS011;65498;50.916;4.698;2023-04-25T05:47:11;8.55;;;2.62;;
76606;SDS011;65498;50.916;4.698;2023-04-25T05:49:39;6.62;;;2.17;;
76606;SDS011;65498;50.916;4.698;2023-04-25T05:52:06;6.87;;;2.22;;
76606;SDS011;65498;50.916;4.698;2023-04-25T05:54:34;7.47;;;2.20;;
76606;SDS011;65498;50.916;4.698;2023-04-25T05:57:01;7.90;;;2.70;;
76606;SDS011;65498;50.916;4.698;2023-04-25T05:59:29;7.55;;;2.30;;
76606;SDS011;65498;50.916;4.698;2023-04-25T06:01:56;6.10;;;2.33;;
76606;SDS011;65498;50.916;4.698;2023-04-25T06:04:24;6.70;;;2.20;;
76606;SDS011;65498;50.916;4.698;2023-04-25T06:06:52;6.47;;;2.00;;
76606;SDS011;65498;50.916;4.698;2023-04-25T06:09:20;5.17;;;1.85;;
76606;SDS011;65498;50.916;4.698;2023-04-25T06:11:47;6.97;;;2.05;;
76606;SDS011;65498;50.916;4.698;2023-04-25T06:14:15;5.90;;;2.12;;
76606;SDS011;65498;50.916;4.698;2023-04-25T06:16:42;9.20;;;2.50;;
76606;SDS011;65498;50.916;4.698;2023-04-25T06:19:10;6.25;;;2.15;;
76606;SDS011;65498;50.916;4.698;2023-04-25T06:21:37;5.60;;;2.10;;
76606;SDS011;65498;50.916;4.698;2023-04-25T06:24:05;6.70;;;2.45;;
76606;SDS011;65498;50.916;4.698;2023-04-25T06:26:33;5.97;;;1.82;;
76606;SDS011;65498;50.916;4.698;2023-04-25T06:29:00;6.10;;;2.00;;
76606;SDS011;65498;50.916;4.698;2023-04-25T06:31:28;5.62;;;2.00;;
76606;SDS011;65498;50.916;4.698;2023-04-25T06:33:57;6.50;;;2.02;;
76606;SDS011;65498;50.916;4.698;2023-04-25T06:36:25;9.20;;;2.95;;
76606;SDS011;65498;50.916;4.698;2023-04-25T06:38:53;8.98;;;2.12;;
76606;SDS011;65498;50.916;4.698;2023-04-25T06:41:21;7.22;;;2.37;;
76606;SDS011;65498;50.916;4.698;2023-04-25T06:43:48;8.75;;;2.62;;
76606;SDS011;65498;50.916;4.698;2023-04-25T06:46:16;7.75;;;2.42;;
76606;SDS011;65498;50.916;4.698;2023-04-25T06:48:43;8.00;;;2.85;;
76606;SDS011;65498;50.916;4.698;2023-04-25T06:51:11;7.58;;;2.75;;
76606;SDS011;65498;50.916;4.698;2023-04-25T06:53:39;7.12;;;2.50;;
76606;SDS011;65498;50.916;4.698;2023-04-25T06:56:07;7.75;;;2.55;;
76606;SDS011;65498;50.916;4.698;2023-04-25T06:58:34;6.87;;;2.37;;
76606;SDS011;65498;50.916;4.698;2023-04-25T07:01:02;11.08;;;2.40;;
76606;SDS011;65498;50.916;4.698;2023-04-25T07:03:30;6.65;;;2.67;;
76606;SDS011;65498;50.916;4.698;2023-04-25T07:05:57;9.23;;;2.52;;
76606;SDS011;65498;50.916;4.698;2023-04-25T07:08:26;8.68;;;3.00;;
76606;SDS011;65498;50.916;4.698;2023-04-25T07:10:55;7.33;;;2.33;;
76606;SDS011;65498;50.916;4.698;2023-04-25T07:13:22;10.78;;;2.87;;
76606;SDS011;65498;50.916;4.698;2023-04-25T07:15:50;8.90;;;2.30;;
76606;SDS011;65498;50.916;4.698;2023-04-25T07:18:17;7.55;;;2.20;;
76606;SDS011;65498;50.916;4.698;2023-04-25T07:20:45;7.00;;;2.40;;
76606;SDS011;65498;50.916;4.698;2023-04-25T07:23:12;6.40;;;2.30;;
76606;SDS011;65498;50.916;4.698;2023-04-25T07:25:40;8.63;;;2.35;;
76606;SDS011;65498;50.916;4.698;2023-04-25T07:28:08;7.55;;;2.47;;
76606;SDS011;65498;50.916;4.698;2023-04-25T07:30:35;7.20;;;2.95;;
76606;SDS011;65498;50.916;4.698;2023-04-25T07:33:03;6.20;;;2.25;;
76606;SDS011;65498;50.916;4.698;2023-04-25T07:35:30;9.73;;;2.30;;
76606;SDS011;65498;50.916;4.698;2023-04-25T07:37:58;8.78;;;2.65;;
76606;SDS011;65498;50.916;4.698;2023-04-25T07:40:25;8.40;;;3.50;;
76606;SDS011;65498;50.916;4.698;2023-04-25T07:42:53;10.25;;;2.90;;
76606;SDS011;65498;50.916;4.698;2023-04-25T07:45:21;8.50;;;2.40;;
76606;SDS011;65498;50.916;4.698;2023-04-25T07:47:49;8.13;;;2.42;;
76606;SDS011;65498;50.916;4.698;2023-04-25T07:50:16;6.10;;;2.10;;
76606;SDS011;65498;50.916;4.698;2023-04-25T07:52:44;7.15;;;2.50;;
76606;SDS011;65498;50.916;4.698;2023-04-25T07:55:11;9.20;;;2.27;;
76606;SDS011;65498;50.916;4.698;2023-04-25T07:57:39;8.43;;;2.40;;
76606;SDS011;65498;50.916;4.698;2023-04-25T08:00:07;7.55;;;2.30;;
76606;SDS011;65498;50.916;4.698;2023-04-25T08:02:35;9.90;;;2.25;;
76606;SDS011;65498;50.916;4.698;2023-04-25T08:05:04;7.95;;;2.50;;
76606;SDS011;65498;50.916;4.698;2023-04-25T08:07:34;7.15;;;2.50;;
76606;SDS011;65498;50.916;4.698;2023-04-25T08:10:01;6.80;;;2.67;;
76606;SDS011;65498;50.916;4.698;2023-04-25T08:12:29;8.30;;;2.60;;
76606;SDS011;65498;50.916;4.698;2023-04-25T08:14:56;7.22;;;2.05;;
76606;SDS011;65498;50.916;4.698;2023-04-25T08:17:24;8.63;;;2.77;;
76606;SDS011;65498;50.916;4.698;2023-04-25T08:19:51;7.50;;;1.90;;
76606;SDS011;65498;50.916;4.698;2023-04-25T08:22:19;7.17;;;2.25;;
76606;SDS011;65498;50.916;4.698;2023-04-25T08:24:47;10.10;;;2.72;;
76606;SDS011;65498;50.916;4.698;2023-04-25T08:27:14;6.67;;;2.22;;
76606;SDS011;65498;50.916;4.698;2023-04-25T08:29:42;7.05;;;2.30;;
76606;SDS011;65498;50.916;4.698;2023-04-25T08:32:09;7.17;;;2.10;;
76606;SDS011;65498;50.916;4.698;2023-04-25T08:34:37;7.30;;;2.30;;
76606;SDS011;65498;50.916;4.698;2023-04-25T08:37:06;11.12;;;2.25;;
76606;SDS011;65498;50.916;4.698;2023-04-25T08:39:35;8.93;;;2.30;;
76606;SDS011;65498;50.916;4.698;2023-04-25T08:42:05;7.97;;;2.52;;
76606;SDS011;65498;50.916;4.698;2023-04-25T08:44:33;6.87;;;2.00;;
76606;SDS011;65498;50.916;4.698;2023-04-25T08:47:02;8.43;;;2.75;;
76606;SDS011;65498;50.916;4.698;2023-04-25T08:49:36;5.58;;;1.95;;
76606;SDS011;65498;50.916;4.698;2023-04-25T08:52:01;9.03;;;2.50;;
76606;SDS011;65498;50.916;4.698;2023-04-25T08:54:32;6.10;;;2.10;;
76606;SDS011;65498;50.916;4.698;2023-04-25T08:57:02;7.28;;;2.12;;
76606;SDS011;65498;50.916;4.698;2023-04-25T08:59:30;8.00;;;2.42;;
76606;SDS011;65498;50.916;4.698;2023-04-25T09:01:58;8.80;;;2.27;;
76606;SDS011;65498;50.916;4.698;2023-04-25T09:04:26;6.30;;;2.17;;
76606;SDS011;65498;50.916;4.698;2023-04-25T09:06:56;6.70;;;2.10;;
76606;SDS011;65498;50.916;4.698;2023-04-25T09:09:24;6.33;;;2.05;;
76606;SDS011;65498;50.916;4.698;2023-04-25T09:11:52;7.05;;;2.35;;
76606;SDS011;65498;50.916;4.698;2023-04-25T09:14:21;6.45;;;2.45;;
76606;SDS011;65498;50.916;4.698;2023-04-25T09:16:57;6.72;;;2.25;;
76606;SDS011;65498;50.916;4.698;2023-04-25T09:19:31;7.97;;;2.15;;
76606;SDS011;65498;50.916;4.698;2023-04-25T09:22:02;7.35;;;2.25;;
76606;SDS011;65498;50.916;4.698;2023-04-25T09:26:58;6.37;;;1.85;;
76606;SDS011;65498;50.916;4.698;2023-04-25T09:29:31;7.62;;;2.02;;
76606;SDS011;65498;50.916;4.698;2023-04-25T09:32:13;7.03;;;2.50;;
76606;SDS011;65498;50.916;4.698;2023-04-25T09:34:44;8.83;;;2.22;;
76606;SDS011;65498;50.916;4.698;2023-04-25T09:37:16;7.50;;;2.33;;
76606;SDS011;65498;50.916;4.698;2023-04-25T09:39:48;5.62;;;2.17;;
76606;SDS011;65498;50.916;4.698;2023-04-25T09:42:18;5.40;;;2.22;;
76606;SDS011;65498;50.916;4.698;2023-04-25T09:44:53;8.58;;;2.20;;
76606;SDS011;65498;50.916;4.698;2023-04-25T09:47:25;8.75;;;2.65;;
76606;SDS011;65498;50.916;4.698;2023-04-25T09:49:54;6.53;;;2.20;;
76606;SDS011;65498;50.916;4.698;2023-04-25T09:52:23;6.78;;;2.45;;
76606;SDS011;65498;50.916;4.698;2023-04-25T09:57:22;6.17;;;1.98;;
76606;SDS011;65498;50.916;4.698;2023-04-25T09:59:51;6.90;;;2.02;;
76606;SDS011;65498;50.916;4.698;2023-04-25T10:02:24;4.53;;;2.08;;
76606;SDS011;65498;50.916;4.698;2023-04-25T10:04:51;6.95;;;2.20;;
76606;SDS011;65498;50.916;4.698;2023-04-25T10:07:25;6.28;;;2.15;;
76606;SDS011;65498;50.916;4.698;2023-04-25T10:10:12;6.25;;;2.10;;
76606;SDS011;65498;50.916;4.698;2023-04-25T10:12:30;6.37;;;2.27;;
76606;SDS011;65498;50.916;4.698;2023-04-25T10:14:59;5.92;;;1.82;;
76606;SDS011;65498;50.916;4.698;2023-04-25T10:17:27;6.33;;;2.40;;
76606;SDS011;65498;50.916;4.698;2023-04-25T10:19:55;5.33;;;1.77;;
76606;SDS011;65498;50.916;4.698;2023-04-25T10:22:45;5.92;;;1.98;;
76606;SDS011;65498;50.916;4.698;2023-04-25T10:24:57;5.90;;;1.77;;
76606;SDS011;65498;50.916;4.698;2023-04-25T10:27:31;5.20;;;1.90;;
76606;SDS011;65498;50.916;4.698;2023-04-25T10:30:05;6.40;;;1.92;;
76606;SDS011;65498;50.916;4.698;2023-04-25T10:32:42;5.40;;;2.05;;
76606;SDS011;65498;50.916;4.698;2023-04-25T10:35:18;6.15;;;1.87;;
76606;SDS011;65498;50.916;4.698;2023-04-25T10:38:00;5.12;;;1.62;;
76606;SDS011;65498;50.916;4.698;2023-04-25T10:40:31;6.08;;;1.82;;
76606;SDS011;65498;50.916;4.698;2023-04-25T10:46:22;5.55;;;2.00;;
76606;SDS011;65498;50.916;4.698;2023-04-25T10:49:02;6.58;;;2.25;;
76606;SDS011;65498;50.916;4.698;2023-04-25T10:51:26;5.92;;;1.92;;
76606;SDS011;65498;50.916;4.698;2023-04-25T10:54:03;5.22;;;1.82;;
76606;SDS011;65498;50.916;4.698;2023-04-25T10:56:42;5.58;;;1.80;;
76606;SDS011;65498;50.916;4.698;2023-04-25T10:59:07;5.87;;;2.12;;
76606;SDS011;65498;50.916;4.698;2023-04-25T11:01:43;8.83;;;2.33;;
76606;SDS011;65498;50.916;4.698;2023-04-25T11:04:19;6.47;;;1.82;;
76606;SDS011;65498;50.916;4.698;2023-04-25T11:09:32;5.37;;;1.80;;
76606;SDS011;65498;50.916;4.698;2023-04-25T11:12:04;6.45;;;1.90;;
76606;SDS011;65498;50.916;4.698;2023-04-25T11:14:34;7.15;;;1.85;;
76606;SDS011;65498;50.916;4.698;2023-04-25T11:17:02;7.62;;;2.15;;
76606;SDS011;65498;50.916;4.698;2023-04-25T11:19:31;7.23;;;2.07;;
76606;SDS011;65498;50.916;4.698;2023-04-25T11:21:59;5.20;;;1.80;;
76606;SDS011;65498;50.916;4.698;2023-04-25T11:24:31;5.05;;;2.02;;
76606;SDS011;65498;50.916;4.698;2023-04-25T11:27:00;5.67;;;1.67;;
76606;SDS011;65498;50.916;4.698;2023-04-25T11:29:29;8.73;;;1.87;;
76606;SDS011;65498;50.916;4.698;2023-04-25T11:31:58;4.62;;;1.60;;
76606;SDS011;65498;50.916;4.698;2023-04-25T11:34:27;6.95;;;2.02;;
76606;SDS011;65498;50.916;4.698;2023-04-25T11:36:58;7.80;;;2.08;;
76606;SDS011;65498;50.916;4.698;2023-04-25T11:39:27;7.10;;;1.90;;
76606;SDS011;65498;50.916;4.698;2023-04-25T11:41:56;7.25;;;1.90;;
76606;SDS011;65498;50.916;4.698;2023-04-25T11:44:23;6.92;;;1.90;;
76606;SDS011;65498;50.916;4.698;2023-04-25T11:46:52;6.03;;;1.90;;
76606;SDS011;65498;50.916;4.698;2023-04-25T11:49:19;7.42;;;2.20;;
76606;SDS011;65498;50.916;4.698;2023-04-25T11:51:48;5.95;;;1.70;;
76606;SDS011;65498;50.916;4.698;2023-04-25T11:54:16;5.30;;;1.80;;
76606;SDS011;65498;50.916;4.698;2023-04-25T11:56:44;5.70;;;1.90;;
76606;SDS011;65498;50.916;4.698;2023-04-25T11:59:12;5.28;;;1.60;;
76606;SDS011;65498;50.916;4.698;2023-04-25T12:01:40;5.33;;;1.70;;
76606;SDS011;65498;50.916;4.698;2023-04-25T12:04:16;3.65;;;1.42;;
76606;SDS011;65498;50.916;4.698;2023-04-25T12:06:47;6.00;;;1.57;;
76606;SDS011;65498;50.916;4.698;2023-04-25T12:09:18;5.30;;;1.70;;
76606;SDS011;65498;50.916;4.698;2023-04-25T12:11:53;4.37;;;1.50;;
76606;SDS011;65498;50.916;4.698;2023-04-25T12:14:25;7.70;;;1.62;;
76606;SDS011;65498;50.916;4.698;2023-04-25T12:16:55;5.15;;;1.70;;
76606;SDS011;65498;50.916;4.698;2023-04-25T12:19:24;7.22;;;1.95;;
76606;SDS011;65498;50.916;4.698;2023-04-25T12:21:53;5.05;;;1.70;;
76606;SDS011;65498;50.916;4.698;2023-04-25T12:24:24;4.78;;;1.65;;
76606;SDS011;65498;50.916;4.698;2023-04-25T12:26:53;4.97;;;1.50;;
76606;SDS011;65498;50.916;4.698;2023-04-25T12:29:28;5.33;;;1.52;;
76606;SDS011;65498;50.916;4.698;2023-04-25T12:31:58;4.95;;;1.80;;
76606;SDS011;65498;50.916;4.698;2023-04-25T12:34:27;4.33;;;1.57;;
76606;SDS011;65498;50.916;4.698;2023-04-25T12:36:56;5.92;;;2.20;;
76606;SDS011;65498;50.916;4.698;2023-04-25T12:39:24;6.70;;;1.82;;
76606;SDS011;65498;50.916;4.698;2023-04-25T12:41:52;4.72;;;1.60;;
76606;SDS011;65498;50.916;4.698;2023-04-25T12:44:20;5.78;;;1.70;;
76606;SDS011;65498;50.916;4.698;2023-04-25T12:46:48;5.37;;;1.50;;
76606;SDS011;65498;50.916;4.698;2023-04-25T12:49:15;5.62;;;1.55;;
76606;SDS011;65498;50.916;4.698;2023-04-25T12:51:43;4.83;;;1.52;;
76606;SDS011;65498;50.916;4.698;2023-04-25T12:54:10;5.17;;;1.45;;
76606;SDS011;65498;50.916;4.698;2023-04-25T12:56:38;5.45;;;1.60;;
76606;SDS011;65498;50.916;4.698;2023-04-25T12:59:07;5.47;;;1.53;;
76606;SDS011;65498;50.916;4.698;2023-04-25T13:01:35;6.37;;;1.50;;
76606;SDS011;65498;50.916;4.698;2023-04-25T13:04:03;5.22;;;1.60;;
76606;SDS011;65498;50.916;4.698;2023-04-25T13:06:30;4.15;;;1.35;;
76606;SDS011;65498;50.916;4.698;2023-04-25T13:08:58;5.50;;;1.57;;
76606;SDS011;65498;50.916;4.698;2023-04-25T13:11:26;4.30;;;1.12;;
76606;SDS011;65498;50.916;4.698;2023-04-25T13:13:53;4.40;;;1.30;;
76606;SDS011;65498;50.916;4.698;2023-04-25T13:16:22;5.10;;;1.40;;
76606;SDS011;65498;50.916;4.698;2023-04-25T13:18:49;4.37;;;1.30;;
76606;SDS011;65498;50.916;4.698;2023-04-25T13:21:17;4.53;;;1.62;;
76606;SDS011;65498;50.916;4.698;2023-04-25T13:23:44;3.83;;;1.50;;
76606;SDS011;65498;50.916;4.698;2023-04-25T13:26:12;4.47;;;1.30;;
76606;SDS011;65498;50.916;4.698;2023-04-25T13:28:40;4.85;;;1.30;;
76606;SDS011;65498;50.916;4.698;2023-04-25T13:31:07;4.03;;;1.20;;
76606;SDS011;65498;50.916;4.698;2023-04-25T13:33:35;5.30;;;1.25;;
76606;SDS011;65498;50.916;4.698;2023-04-25T13:36:02;5.97;;;1.37;;
76606;SDS011;65498;50.916;4.698;2023-04-25T13:38:31;5.28;;;1.30;;
76606;SDS011;65498;50.916;4.698;2023-04-25T13:40:58;6.33;;;1.35;;
76606;SDS011;65498;50.916;4.698;2023-04-25T13:43:26;3.90;;;1.10;;
76606;SDS011;65498;50.916;4.698;2023-04-25T13:45:54;4.53;;;1.37;;
76606;SDS011;65498;50.916;4.698;2023-04-25T13:48:21;3.20;;;1.05;;
76606;SDS011;65498;50.916;4.698;2023-04-25T13:50:50;4.83;;;1.30;;
76606;SDS011;65498;50.916;4.698;2023-04-25T13:53:19;4.75;;;1.52;;
76606;SDS011;65498;50.916;4.698;2023-04-25T13:55:47;3.92;;;1.10;;
76606;SDS011;65498;50.916;4.698;2023-04-25T13:58:14;3.65;;;1.22;;
76606;SDS011;65498;50.916;4.698;2023-04-25T14:00:42;4.12;;;1.37;;
76606;SDS011;65498;50.916;4.698;2023-04-25T14:03:11;4.05;;;1.20;;
76606;SDS011;65498;50.916;4.698;2023-04-25T14:05:38;5.20;;;1.32;;
76606;SDS011;65498;50.916;4.698;2023-04-25T14:08:07;2.60;;;1.00;;
76606;SDS011;65498;50.916;4.698;2023-04-25T14:10:35;4.70;;;1.50;;
76606;SDS011;65498;50.916;4.698;2023-04-25T14:13:04;5.10;;;1.22;;
76606;SDS011;65498;50.916;4.698;2023-04-25T14:15:33;5.22;;;1.52;;
76606;SDS011;65498;50.916;4.698;2023-04-25T14:18:01;2.62;;;1.05;;
76606;SDS011;65498;50.916;4.698;2023-04-25T14:20:29;3.27;;;1.10;;
76606;SDS011;65498;50.916;4.698;2023-04-25T14:22:56;3.55;;;1.20;;
76606;SDS011;65498;50.916;4.698;2023-04-25T14:25:24;3.67;;;1.17;;
76606;SDS011;65498;50.916;4.698;2023-04-25T14:27:52;2.70;;;1.02;;
76606;SDS011;65498;50.916;4.698;2023-04-25T14:30:20;3.25;;;1.22;;
76606;SDS011;65498;50.916;4.698;2023-04-25T14:32:51;4.33;;;1.45;;
76606;SDS011;65498;50.916;4.698;2023-04-25T14:35:18;3.80;;;1.10;;
76606;SDS011;65498;50.916;4.698;2023-04-25T14:37:46;2.98;;;1.05;;
76606;SDS011;65498;50.916;4.698;2023-04-25T14:40:14;4.33;;;1.20;;
76606;SDS011;65498;50.916;4.698;2023-04-25T14:42:42;4.37;;;1.10;;
76606;SDS011;65498;50.916;4.698;2023-04-25T14:45:10;3.05;;;0.80;;
76606;SDS011;65498;50.916;4.698;2023-04-25T14:47:38;5.30;;;1.50;;
76606;SDS011;65498;50.916;4.698;2023-04-25T14:50:06;3.25;;;1.00;;
76606;SDS011;65498;50.916;4.698;2023-04-25T14:52:35;4.17;;;1.12;;
76606;SDS011;65498;50.916;4.698;2023-04-25T14:55:03;4.97;;;1.00;;
76606;SDS011;65498;50.916;4.698;2023-04-25T14:57:33;3.35;;;0.90;;
76606;SDS011;65498;50.916;4.698;2023-04-25T15:00:01;2.67;;;0.98;;
76606;SDS011;65498;50.916;4.698;2023-04-25T15:02:31;5.42;;;1.17;;
76606;SDS011;65498;50.916;4.698;2023-04-25T15:05:00;4.17;;;1.22;;
76606;SDS011;65498;50.916;4.698;2023-04-25T15:07:28;3.52;;;1.00;;
76606;SDS011;65498;50.916;4.698;2023-04-25T15:09:56;3.67;;;1.07;;